Terminal Aerodrome Forecast
Issued by NWS

Home | Current Version | Previous Version | Text Only | Print | Product List | Glossary On
Versions: 1 2 3 4 5 6 7 8 9 10 11 12
000
FTUS46 KHNX 292300
TAFVIS
TAF
KVIS 292320Z 3000/3024 30006KT P6SM SCT130 BKN200
     FM301000 VRB04KT P6SM SCT120
     FM302000 30007KT P6SM SCT200=

USA.gov is the U.S. government's official web portal to all federal, state and local government web resources and services.